createdAt,value
2023-03-28T00:02:06.585Z,1.90
2023-03-28T00:04:34.645Z,1.90
2023-03-28T00:07:02.690Z,1.55
2023-03-28T00:09:32.963Z,2.13
2023-03-28T00:12:00.995Z,1.77
2023-03-28T00:14:29.317Z,1.70
2023-03-28T00:16:57.290Z,2.00
2023-03-28T00:19:25.310Z,2.03
2023-03-28T00:21:54.821Z,2.05
2023-03-28T00:24:22.843Z,1.98
2023-03-28T00:26:54.759Z,2.05
2023-03-28T00:29:26.179Z,1.98
2023-03-28T00:31:54.160Z,1.83
2023-03-28T00:34:22.135Z,2.20
2023-03-28T00:36:50.676Z,1.70
2023-03-28T00:39:18.671Z,2.13
2023-03-28T00:41:46.910Z,1.70
2023-03-28T00:44:54.356Z,2.20
2023-03-28T00:47:42.075Z,2.20
2023-03-28T00:50:15.006Z,1.60
2023-03-28T00:52:47.312Z,2.40
2023-03-28T00:57:46.414Z,1.90
2023-03-28T01:00:18.968Z,2.10
2023-03-28T01:02:52.452Z,1.85
2023-03-28T01:05:25.080Z,1.67
2023-03-28T01:07:59.125Z,1.73
2023-03-28T01:10:27.130Z,2.10
2023-03-28T01:12:57.676Z,2.08
2023-03-28T01:15:25.946Z,1.65
2023-03-28T01:17:56.227Z,1.63
2023-03-28T01:20:46.761Z,2.08
2023-03-28T01:23:53.530Z,1.80
2023-03-28T01:26:48.398Z,2.00
2023-03-28T01:29:49.382Z,2.08
2023-03-28T01:32:40.775Z,1.85
2023-03-28T01:35:37.732Z,2.10
2023-03-28T01:38:14.518Z,2.03
2023-03-28T01:40:48.363Z,2.08
2023-03-28T01:43:31.808Z,2.05
2023-03-28T01:46:07.157Z,2.45
2023-03-28T01:48:44.373Z,2.20
2023-03-28T01:51:21.810Z,2.00
2023-03-28T01:53:59.125Z,2.17
2023-03-28T01:56:34.400Z,2.17
2023-03-28T01:59:09.560Z,2.15
2023-03-28T02:01:47.179Z,1.85
2023-03-28T02:04:21.419Z,2.38
2023-03-28T02:06:52.688Z,2.00
2023-03-28T02:09:26.091Z,2.25
2023-03-28T02:11:58.055Z,2.13
2023-03-28T02:14:31.397Z,2.83
2023-03-28T02:17:04.732Z,2.40
2023-03-28T02:19:36.005Z,2.42
2023-03-28T02:22:13.501Z,2.15
2023-03-28T02:24:43.213Z,2.38
2023-03-28T02:27:11.284Z,2.13
2023-03-28T02:29:40.001Z,2.35
2023-03-28T02:32:08.575Z,2.17
2023-03-28T02:34:36.937Z,2.28
2023-03-28T02:37:17.096Z,2.08
2023-03-28T02:39:52.191Z,2.33
2023-03-28T02:42:49.353Z,1.98
2023-03-28T02:45:28.810Z,2.35
2023-03-28T02:48:04.726Z,1.88
2023-03-28T02:50:40.619Z,2.30
2023-03-28T02:53:13.740Z,2.30
2023-03-28T02:55:51.769Z,2.22
2023-03-28T02:58:24.819Z,2.40
2023-03-28T03:00:54.060Z,2.60
2023-03-28T03:03:23.628Z,2.42
2023-03-28T03:05:52.009Z,2.50
2023-03-28T03:08:20.303Z,2.40
2023-03-28T03:10:49.706Z,2.42
2023-03-28T03:13:17.742Z,2.22
2023-03-28T03:15:46.244Z,2.58
2023-03-28T03:18:14.459Z,2.40
2023-03-28T03:20:45.766Z,2.45
2023-03-28T03:23:14.313Z,2.53
2023-03-28T03:25:43.347Z,2.60
2023-03-28T03:28:13.044Z,2.42
2023-03-28T03:30:41.275Z,2.60
2023-03-28T03:33:10.630Z,2.65
2023-03-28T03:35:42.162Z,2.70
2023-03-28T03:38:10.696Z,2.55
2023-03-28T03:40:39.009Z,2.72
2023-03-28T03:43:07.068Z,2.80
2023-03-28T03:45:37.926Z,2.40
2023-03-28T03:48:06.455Z,2.58
2023-03-28T03:50:34.695Z,2.70
2023-03-28T03:53:02.885Z,2.65
2023-03-28T03:55:32.727Z,2.72
2023-03-28T03:58:01.489Z,2.53
2023-03-28T04:00:29.539Z,2.80
2023-03-28T04:02:59.216Z,2.95
2023-03-28T04:05:27.235Z,3.60
2023-03-28T04:07:57.539Z,3.97
2023-03-28T04:10:25.643Z,3.20
2023-03-28T04:12:53.608Z,3.80
2023-03-28T04:15:21.642Z,3.80
2023-03-28T04:17:50.437Z,3.40
2023-03-28T04:20:21.161Z,3.08
2023-03-28T04:22:50.391Z,3.25
2023-03-28T04:25:19.040Z,3.72
2023-03-28T04:27:48.906Z,4.30
2023-03-28T04:30:17.720Z,4.53
2023-03-28T04:32:49.439Z,5.00
2023-03-28T04:35:19.242Z,5.28
2023-03-28T04:37:47.410Z,5.05
2023-03-28T04:40:17.853Z,5.03
2023-03-28T04:42:46.835Z,4.95
2023-03-28T04:45:17.604Z,4.78
2023-03-28T04:47:46.295Z,5.70
2023-03-28T04:50:14.395Z,5.20
2023-03-28T04:52:44.058Z,5.00
2023-03-28T04:55:12.230Z,4.70
2023-03-28T04:57:40.568Z,5.15
2023-03-28T05:00:10.763Z,5.47
2023-03-28T05:02:39.487Z,6.60
2023-03-28T05:05:08.906Z,5.28
2023-03-28T05:07:37.431Z,5.88
2023-03-28T05:10:08.470Z,5.60
2023-03-28T05:12:36.479Z,5.45
2023-03-28T05:15:04.805Z,5.38
2023-03-28T05:17:32.787Z,5.05
2023-03-28T05:20:00.874Z,5.20
2023-03-28T05:22:29.082Z,5.85
2023-03-28T05:24:57.073Z,5.18
2023-03-28T05:27:26.743Z,5.57
2023-03-28T05:29:54.682Z,6.13
2023-03-28T05:32:23.371Z,6.00
2023-03-28T05:34:51.883Z,6.50
2023-03-28T05:37:20.026Z,7.00
2023-03-28T05:39:48.138Z,7.35
2023-03-28T05:42:16.151Z,6.53
2023-03-28T05:44:45.539Z,6.88
2023-03-28T05:47:13.532Z,7.57
2023-03-28T05:49:41.869Z,9.48
2023-03-28T05:52:09.971Z,8.05
2023-03-28T05:54:38.092Z,8.23
2023-03-28T05:57:06.264Z,8.27
2023-03-28T05:59:34.349Z,8.80
2023-03-28T06:02:03.746Z,9.70
2023-03-28T06:04:32.583Z,10.32
2023-03-28T06:07:03.102Z,10.57
2023-03-28T06:09:31.617Z,10.45
2023-03-28T06:12:00.218Z,10.02
2023-03-28T06:14:28.614Z,11.15
2023-03-28T06:16:56.737Z,10.68
2023-03-28T06:19:27.316Z,12.63
2023-03-28T06:21:55.862Z,13.07
2023-03-28T06:24:24.174Z,12.35
2023-03-28T06:26:52.373Z,12.57
2023-03-28T06:29:21.831Z,11.02
2023-03-28T06:31:50.027Z,10.63
2023-03-28T06:34:18.786Z,12.77
2023-03-28T06:36:48.465Z,10.45
2023-03-28T06:39:16.723Z,9.75
2023-03-28T06:41:44.790Z,8.43
2023-03-28T06:44:12.922Z,7.35
2023-03-28T06:46:41.193Z,7.60
2023-03-28T06:49:09.227Z,6.22
2023-03-28T06:51:37.450Z,5.80
2023-03-28T06:54:07.071Z,5.25
2023-03-28T06:56:35.450Z,5.30
2023-03-28T06:59:03.733Z,5.45
2023-03-28T07:01:32.064Z,5.22
2023-03-28T07:04:00.255Z,5.40
2023-03-28T07:06:28.875Z,5.80
2023-03-28T07:08:59.292Z,5.35
2023-03-28T07:11:29.114Z,4.80
2023-03-28T07:13:57.544Z,4.28
2023-03-28T07:16:25.941Z,4.88
2023-03-28T07:18:54.161Z,4.60
2023-03-28T07:21:22.504Z,4.43
2023-03-28T07:23:50.654Z,3.72
2023-03-28T07:26:19.398Z,3.92
2023-03-28T07:28:49.218Z,4.32
2023-03-28T07:31:18.414Z,3.47
2023-03-28T07:33:46.719Z,3.80
2023-03-28T07:36:17.644Z,4.15
2023-03-28T07:38:48.404Z,3.20
2023-03-28T07:41:17.470Z,3.67
2023-03-28T07:43:45.944Z,4.07
2023-03-28T07:46:16.616Z,3.63
2023-03-28T07:48:46.717Z,3.50
2023-03-28T07:51:15.244Z,3.10
2023-03-28T07:53:43.665Z,3.10
2023-03-28T07:56:12.447Z,2.80
2023-03-28T07:58:40.990Z,2.45
2023-03-28T08:01:10.230Z,2.40
2023-03-28T08:03:40.103Z,2.58
2023-03-28T08:06:24.191Z,2.38
2023-03-28T08:08:53.417Z,2.30
2023-03-28T08:11:21.696Z,2.50
2023-03-28T08:13:50.001Z,2.70
2023-03-28T08:16:18.257Z,2.33
2023-03-28T08:18:56.966Z,2.45
2023-03-28T08:21:32.235Z,2.90
2023-03-28T08:24:00.486Z,2.90
2023-03-28T08:26:29.003Z,2.85
2023-03-28T08:28:58.998Z,3.33
2023-03-28T08:31:28.999Z,2.53
2023-03-28T08:33:59.522Z,2.60
2023-03-28T08:36:29.019Z,2.97
2023-03-28T08:39:00.724Z,2.92
2023-03-28T08:41:47.393Z,2.60
2023-03-28T08:44:37.925Z,3.80
2023-03-28T08:47:12.912Z,3.30
2023-03-28T08:49:47.623Z,3.40
2023-03-28T08:52:19.877Z,3.85
2023-03-28T08:54:51.155Z,3.95
2023-03-28T08:57:25.029Z,3.78
2023-03-28T09:00:00.913Z,4.13
2023-03-28T09:02:31.286Z,4.18
2023-03-28T09:05:21.557Z,3.50
2023-03-28T09:07:59.927Z,3.38
2023-03-28T09:10:33.625Z,3.47
2023-03-28T09:13:10.413Z,2.60
2023-03-28T09:15:51.110Z,3.13
2023-03-28T09:18:31.722Z,3.03
2023-03-28T09:21:06.002Z,2.70
2023-03-28T09:23:52.832Z,2.13
2023-03-28T09:26:25.377Z,2.40
2023-03-28T09:28:58.517Z,2.20
2023-03-28T09:31:31.694Z,2.20
2023-03-28T09:34:00.461Z,2.40
2023-03-28T09:36:45.386Z,2.40
2023-03-28T09:39:27.283Z,2.30
2023-03-28T09:42:01.061Z,2.30
2023-03-28T09:44:40.933Z,2.13
2023-03-28T09:47:19.823Z,2.05
2023-03-28T09:49:49.572Z,2.63
2023-03-28T09:52:23.101Z,2.45
2023-03-28T09:54:51.782Z,2.25
2023-03-28T09:57:20.138Z,2.35
2023-03-28T09:59:48.389Z,2.10
2023-03-28T10:02:29.265Z,2.45
2023-03-28T10:04:57.835Z,2.13
2023-03-28T10:07:45.933Z,2.47
2023-03-28T10:10:21.770Z,2.08
2023-03-28T10:12:50.530Z,2.10
2023-03-28T10:15:33.750Z,2.65
2023-03-28T10:18:03.545Z,2.50
2023-03-28T10:20:37.817Z,2.20
2023-03-28T10:23:07.425Z,2.60
2023-03-28T10:25:41.110Z,2.28
2023-03-28T10:28:15.128Z,2.40
2023-03-28T10:30:43.860Z,2.47
2023-03-28T10:33:25.586Z,2.30
2023-03-28T10:35:59.844Z,2.80
2023-03-28T10:38:36.427Z,2.13
2023-03-28T10:41:08.152Z,2.10
2023-03-28T10:43:38.785Z,2.28
2023-03-28T10:46:14.359Z,2.30
2023-03-28T10:48:47.587Z,2.65
2023-03-28T10:51:19.414Z,2.80
2023-03-28T10:54:20.365Z,3.00
2023-03-28T10:56:54.149Z,2.80
2023-03-28T10:59:39.168Z,3.25
2023-03-28T11:02:37.812Z,3.25
2023-03-28T11:05:21.601Z,3.53
2023-03-28T11:07:59.183Z,3.63
2023-03-28T11:10:34.934Z,4.20
2023-03-28T11:13:16.696Z,4.70
2023-03-28T11:15:55.149Z,4.30
2023-03-28T11:18:34.216Z,4.43
2023-03-28T11:21:18.032Z,4.70
2023-03-28T11:23:48.852Z,5.25
2023-03-28T11:26:20.942Z,4.82
2023-03-28T11:29:05.486Z,5.35
2023-03-28T11:31:39.074Z,5.57
2023-03-28T11:34:13.548Z,5.45
2023-03-28T11:36:47.672Z,4.82
2023-03-28T11:39:21.748Z,4.47
2023-03-28T11:41:51.562Z,4.80
2023-03-28T11:44:27.401Z,4.90
2023-03-28T11:46:59.639Z,4.43
2023-03-28T11:49:33.811Z,4.47
2023-03-28T11:52:07.233Z,4.90
2023-03-28T11:54:41.382Z,4.57
2023-03-28T11:57:19.920Z,4.07
2023-03-28T11:59:54.114Z,3.97
2023-03-28T12:02:41.383Z,3.10
2023-03-28T12:05:19.769Z,3.03
2023-03-28T12:07:54.009Z,3.08
2023-03-28T12:10:25.432Z,3.20
2023-03-28T12:13:03.131Z,2.75
2023-03-28T12:15:38.468Z,2.92
2023-03-28T12:18:12.033Z,2.72
2023-03-28T12:20:45.413Z,2.60
2023-03-28T12:23:22.420Z,2.42
2023-03-28T12:26:01.414Z,2.97
2023-03-28T12:28:37.152Z,2.42
2023-03-28T12:31:12.757Z,2.83
2023-03-28T12:33:52.069Z,3.20
2023-03-28T12:36:28.701Z,2.97
2023-03-28T12:39:02.035Z,2.97
2023-03-28T12:41:33.072Z,2.78
2023-03-28T12:44:08.042Z,2.63
2023-03-28T12:46:46.174Z,2.70
2023-03-28T12:49:20.068Z,2.55
2023-03-28T12:51:50.129Z,2.72
2023-03-28T12:54:27.287Z,2.95
2023-03-28T12:57:05.648Z,2.95
2023-03-28T13:00:00.538Z,2.65
2023-03-28T13:02:38.262Z,3.40
2023-03-28T13:05:16.257Z,3.08
2023-03-28T13:07:58.715Z,2.95
2023-03-28T13:10:37.311Z,2.83
2023-03-28T13:13:18.610Z,2.70
2023-03-28T13:16:02.929Z,2.90
2023-03-28T13:18:35.729Z,2.90
2023-03-28T13:21:07.330Z,2.83
2023-03-28T13:23:48.048Z,2.65
2023-03-28T13:26:16.445Z,3.00
2023-03-28T13:28:47.859Z,2.88
2023-03-28T13:31:24.850Z,2.88
2023-03-28T13:34:01.790Z,3.53
2023-03-28T13:36:32.764Z,3.10
2023-03-28T13:39:09.487Z,3.17
2023-03-28T13:42:04.725Z,2.83
2023-03-28T13:44:40.140Z,3.10
2023-03-28T13:47:16.402Z,2.83
2023-03-28T13:49:51.604Z,2.95
2023-03-28T13:52:22.793Z,3.47
2023-03-28T13:54:54.352Z,3.47
2023-03-28T13:57:26.076Z,3.22
2023-03-28T13:59:56.544Z,3.35
2023-03-28T14:02:34.212Z,3.50
2023-03-28T14:05:15.654Z,3.70
2023-03-28T14:07:43.864Z,3.88
2023-03-28T14:10:30.678Z,3.20
2023-03-28T14:13:01.998Z,3.38
2023-03-28T14:15:32.179Z,3.78
2023-03-28T14:18:01.185Z,3.70
2023-03-28T14:20:31.732Z,3.75
2023-03-28T14:23:01.387Z,3.45
2023-03-28T14:25:31.556Z,3.70
2023-03-28T14:28:08.932Z,3.80
2023-03-28T14:30:41.084Z,3.35
2023-03-28T14:33:21.042Z,3.72
2023-03-28T14:36:00.166Z,3.40
2023-03-28T14:38:30.807Z,3.72
2023-03-28T14:41:08.252Z,3.22
2023-03-28T14:43:37.286Z,3.63
2023-03-28T14:46:09.286Z,3.33
2023-03-28T14:48:39.173Z,3.28
2023-03-28T14:51:13.928Z,3.45
2023-03-28T14:53:45.732Z,3.60
2023-03-28T14:56:17.504Z,3.42
2023-03-28T14:58:50.020Z,3.60
2023-03-28T15:01:23.046Z,4.18
2023-03-28T15:03:55.043Z,4.13
2023-03-28T15:06:26.097Z,4.05
2023-03-28T15:08:56.227Z,4.30
2023-03-28T15:11:27.820Z,3.60
2023-03-28T15:14:02.303Z,4.20
2023-03-28T15:16:33.285Z,4.50
2023-03-28T15:19:07.061Z,4.20
2023-03-28T15:21:38.121Z,4.00
2023-03-28T15:24:10.990Z,4.03
2023-03-28T15:26:43.064Z,3.85
2023-03-28T15:29:17.136Z,4.15
2023-03-28T15:31:46.229Z,4.20
2023-03-28T15:34:21.575Z,3.97
2023-03-28T15:36:54.409Z,3.78
2023-03-28T15:39:25.792Z,3.83
2023-03-28T15:41:56.518Z,3.88
2023-03-28T15:44:28.618Z,4.18
2023-03-28T15:46:59.779Z,3.85
2023-03-28T15:49:28.586Z,4.60
2023-03-28T15:52:02.837Z,4.93
2023-03-28T15:54:32.388Z,4.22
2023-03-28T15:57:03.186Z,4.18
2023-03-28T15:59:37.213Z,4.22
2023-03-28T16:02:30.941Z,4.78
2023-03-28T16:05:06.440Z,4.55
2023-03-28T16:07:38.657Z,4.80
2023-03-28T16:10:14.650Z,4.63
2023-03-28T16:12:43.184Z,5.10
2023-03-28T16:15:12.036Z,4.15
2023-03-28T16:17:42.191Z,4.50
2023-03-28T16:20:15.768Z,4.53
2023-03-28T16:22:45.482Z,4.82
2023-03-28T16:25:13.938Z,4.65
2023-03-28T16:27:42.892Z,5.00
2023-03-28T16:30:19.133Z,5.22
2023-03-28T16:32:47.388Z,5.07
2023-03-28T16:35:15.853Z,5.18
2023-03-28T16:37:45.589Z,5.55
2023-03-28T16:40:14.329Z,5.40
2023-03-28T16:42:42.793Z,5.43
2023-03-28T16:45:13.019Z,5.28
2023-03-28T16:47:41.658Z,5.05
2023-03-28T16:50:11.196Z,5.93
2023-03-28T16:52:40.313Z,4.88
2023-03-28T16:55:11.837Z,4.88
2023-03-28T16:57:39.971Z,5.60
2023-03-28T17:00:11.640Z,5.03
2023-03-28T17:02:39.895Z,5.68
2023-03-28T17:05:08.715Z,6.32
2023-03-28T17:07:36.885Z,4.90
2023-03-28T17:10:05.442Z,5.28
2023-03-28T17:12:35.133Z,5.82
2023-03-28T17:15:03.839Z,5.05
2023-03-28T17:17:31.971Z,5.57
2023-03-28T17:20:01.150Z,5.90
2023-03-28T17:22:29.264Z,6.20
2023-03-28T17:24:57.968Z,5.32
2023-03-28T17:27:25.982Z,5.60
2023-03-28T17:29:55.565Z,5.20
2023-03-28T17:32:23.762Z,5.10
2023-03-28T17:34:52.126Z,4.47
2023-03-28T17:37:22.176Z,4.82
2023-03-28T17:39:50.115Z,3.92
2023-03-28T17:42:18.061Z,4.13
2023-03-28T17:44:46.052Z,3.95
2023-03-28T17:47:16.238Z,4.47
2023-03-28T17:49:44.437Z,5.15
2023-03-28T17:52:12.850Z,4.13
2023-03-28T17:54:41.055Z,3.85
2023-03-28T17:57:09.564Z,4.28
2023-03-28T17:59:37.871Z,3.85
2023-03-28T18:02:05.936Z,4.22
2023-03-28T18:04:35.675Z,3.90
2023-03-28T18:07:15.902Z,3.67
2023-03-28T18:09:44.932Z,3.78
2023-03-28T18:12:14.100Z,3.80
2023-03-28T18:14:42.314Z,4.40
2023-03-28T18:17:10.387Z,3.78
2023-03-28T18:19:40.131Z,3.25
2023-03-28T18:22:08.887Z,2.83
2023-03-28T18:24:38.075Z,3.28
2023-03-28T18:27:06.130Z,3.20
2023-03-28T18:29:34.366Z,3.28
2023-03-28T18:32:02.475Z,4.00
2023-03-28T18:34:30.856Z,4.07
2023-03-28T18:37:00.300Z,4.50
2023-03-28T18:39:29.313Z,4.90
2023-03-28T18:41:57.727Z,4.50
2023-03-28T18:44:25.936Z,5.47
2023-03-28T18:46:55.713Z,4.75
2023-03-28T18:49:24.170Z,5.53
2023-03-28T18:51:52.767Z,5.22
2023-03-28T18:54:23.028Z,5.35
2023-03-28T18:56:51.378Z,5.05
2023-03-28T18:59:20.266Z,5.55
2023-03-28T19:01:51.582Z,6.28
2023-03-28T19:04:20.351Z,5.85
2023-03-28T19:06:49.242Z,6.50
2023-03-28T19:09:17.395Z,6.53
2023-03-28T19:11:46.778Z,6.60
2023-03-28T19:14:14.831Z,6.07
2023-03-28T19:16:43.014Z,6.95
2023-03-28T19:19:11.027Z,6.97
2023-03-28T19:21:39.037Z,6.22
2023-03-28T19:24:07.834Z,6.35
2023-03-28T19:26:37.127Z,6.68
2023-03-28T19:29:06.642Z,6.80
2023-03-28T19:31:34.676Z,6.10
2023-03-28T19:34:03.052Z,5.65
2023-03-28T19:36:31.020Z,5.00
2023-03-28T19:38:59.031Z,4.88
2023-03-28T19:41:27.562Z,4.30
2023-03-28T19:43:56.305Z,4.43
2023-03-28T19:46:33.214Z,3.97
2023-03-28T19:49:05.675Z,3.75
2023-03-28T19:51:34.726Z,3.63
2023-03-28T19:54:03.004Z,3.80
2023-03-28T19:56:31.140Z,3.50
2023-03-28T19:58:59.417Z,3.05
2023-03-28T20:01:28.844Z,3.00
2023-03-28T20:03:57.184Z,3.72
2023-03-28T20:06:25.344Z,3.42
2023-03-28T20:08:53.721Z,3.67
2023-03-28T20:11:22.145Z,3.50
2023-03-28T20:13:50.770Z,3.58
2023-03-28T20:16:18.832Z,4.00
2023-03-28T20:18:48.966Z,4.20
2023-03-28T20:21:17.080Z,4.28
2023-03-28T20:23:45.392Z,4.95
2023-03-28T20:26:16.138Z,4.57
2023-03-28T20:28:46.839Z,4.40
2023-03-28T20:31:15.165Z,4.38
2023-03-28T20:33:43.295Z,4.10
2023-03-28T20:36:14.222Z,4.43
2023-03-28T20:38:42.378Z,4.00
2023-03-28T20:41:12.054Z,4.95
2023-03-28T20:43:46.994Z,3.40
2023-03-28T20:46:18.389Z,3.45
2023-03-28T20:48:48.253Z,3.67
2023-03-28T20:51:18.839Z,3.88
2023-03-28T20:53:49.769Z,2.97
2023-03-28T20:56:19.188Z,3.10
2023-03-28T20:58:47.724Z,3.40
2023-03-28T21:01:17.803Z,3.42
2023-03-28T21:03:49.976Z,3.55
2023-03-28T21:06:21.369Z,2.92
2023-03-28T21:08:51.074Z,3.33
2023-03-28T21:11:21.205Z,3.38
2023-03-28T21:13:49.308Z,3.40
2023-03-28T21:16:18.039Z,3.53
2023-03-28T21:18:46.827Z,2.95
2023-03-28T21:21:16.986Z,3.75
2023-03-28T21:23:47.756Z,3.15
2023-03-28T21:26:17.965Z,3.40
2023-03-28T21:28:46.457Z,3.30
2023-03-28T21:31:16.389Z,3.20
2023-03-28T21:33:45.761Z,3.50
2023-03-28T21:36:17.067Z,3.60
2023-03-28T21:38:48.266Z,3.00
2023-03-28T21:41:16.951Z,3.65
2023-03-28T21:43:45.079Z,4.00
2023-03-28T21:46:15.031Z,3.35
2023-03-28T21:48:44.606Z,3.30
2023-03-28T21:51:13.153Z,3.47
2023-03-28T21:53:42.327Z,3.78
2023-03-28T21:56:14.334Z,3.90
2023-03-28T21:58:43.149Z,3.97
2023-03-28T22:01:13.951Z,3.97
2023-03-28T22:03:42.537Z,3.92
2023-03-28T22:06:11.547Z,3.95
2023-03-28T22:08:39.803Z,3.75
2023-03-28T22:11:14.792Z,4.10
2023-03-28T22:13:44.922Z,3.50
2023-03-28T22:16:15.480Z,4.10
2023-03-28T22:18:49.528Z,4.10
2023-03-28T22:21:17.735Z,4.05
2023-03-28T22:23:47.512Z,3.55
2023-03-28T22:26:17.936Z,3.78
2023-03-28T22:28:46.230Z,3.78
2023-03-28T22:31:16.968Z,3.60
2023-03-28T22:33:45.153Z,3.75
2023-03-28T22:36:13.755Z,3.72
2023-03-28T22:38:42.049Z,4.05
2023-03-28T22:41:10.263Z,4.18
2023-03-28T22:43:42.599Z,3.58
2023-03-28T22:46:12.628Z,3.85
2023-03-28T22:48:42.067Z,3.78
2023-03-28T22:51:11.835Z,4.07
2023-03-28T22:53:40.655Z,4.20
2023-03-28T22:56:10.313Z,3.88
2023-03-28T22:58:40.143Z,3.40
2023-03-28T23:01:08.977Z,3.60
2023-03-28T23:03:37.492Z,3.80
2023-03-28T23:06:06.821Z,3.47
2023-03-28T23:08:35.284Z,3.40
2023-03-28T23:11:03.780Z,3.95
2023-03-28T23:13:32.183Z,3.50
2023-03-28T23:16:02.756Z,3.67
2023-03-28T23:18:31.253Z,3.78
2023-03-28T23:20:59.347Z,3.80
2023-03-28T23:23:27.419Z,3.17
2023-03-28T23:25:55.427Z,3.75
2023-03-28T23:28:23.348Z,3.47
2023-03-28T23:30:51.412Z,3.78
2023-03-28T23:33:20.844Z,3.45
2023-03-28T23:35:48.960Z,4.00
2023-03-28T23:38:17.487Z,3.30
2023-03-28T23:40:46.065Z,3.50
2023-03-28T23:43:14.233Z,3.28
2023-03-28T23:45:42.428Z,3.55
2023-03-28T23:48:11.056Z,3.60
2023-03-28T23:50:41.121Z,3.53
2023-03-28T23:53:09.727Z,3.63
2023-03-28T23:55:37.782Z,3.55
2023-03-28T23:58:05.796Z,3.55
